createdAt,value
2022-09-21T00:01:17.319Z,99.90
2022-09-21T00:03:45.510Z,99.90
2022-09-21T00:06:15.393Z,99.90
2022-09-21T00:08:43.401Z,99.90
2022-09-21T00:11:25.090Z,99.90
2022-09-21T00:14:05.574Z,99.90
2022-09-21T00:16:33.008Z,99.90
2022-09-21T00:19:00.991Z,99.90
2022-09-21T00:21:28.448Z,99.90
2022-09-21T00:23:55.721Z,99.90
2022-09-21T00:26:25.029Z,99.90
2022-09-21T00:28:58.194Z,99.90
2022-09-21T00:31:26.202Z,99.90
2022-09-21T00:33:53.645Z,99.90
2022-09-21T00:36:23.791Z,99.90
2022-09-21T00:38:53.330Z,99.90
2022-09-21T00:41:20.830Z,99.90
2022-09-21T00:44:20.488Z,99.90
2022-09-21T00:46:49.554Z,99.90
2022-09-21T00:49:17.834Z,99.90
2022-09-21T00:51:46.612Z,99.90
2022-09-21T00:54:20.570Z,99.90
2022-09-21T00:56:48.133Z,99.90
2022-09-21T00:59:21.412Z,99.90
2022-09-21T01:01:49.204Z,99.90
2022-09-21T01:04:19.050Z,99.90
2022-09-21T01:06:48.022Z,99.90
2022-09-21T01:09:16.754Z,99.90
2022-09-21T01:12:29.552Z,99.90
2022-09-21T01:15:15.585Z,99.90
2022-09-21T01:18:08.655Z,99.90
2022-09-21T01:21:06.730Z,99.90
2022-09-21T01:23:55.543Z,99.90
2022-09-21T01:26:47.462Z,99.90
2022-09-21T01:29:34.610Z,99.90
2022-09-21T01:32:20.947Z,99.90
2022-09-21T01:34:51.206Z,99.90
2022-09-21T01:37:23.486Z,99.90
2022-09-21T01:39:55.889Z,99.90
2022-09-21T01:42:25.673Z,99.90
2022-09-21T01:44:53.058Z,99.90
2022-09-21T01:47:20.783Z,99.90
2022-09-21T01:49:54.770Z,99.90
2022-09-21T01:52:48.767Z,99.90
2022-09-21T01:55:41.264Z,99.90
2022-09-21T01:58:40.448Z,99.90
2022-09-21T02:01:12.136Z,99.90
2022-09-21T02:03:54.425Z,99.90
2022-09-21T02:06:21.623Z,99.90
2022-09-21T02:08:48.858Z,99.90
2022-09-21T02:11:15.923Z,99.90
2022-09-21T02:13:49.832Z,99.90
2022-09-21T02:16:35.608Z,99.90
2022-09-21T02:19:14.398Z,99.90
2022-09-21T02:21:57.405Z,99.90
2022-09-21T02:24:43.837Z,99.90
2022-09-21T02:27:30.910Z,99.90
2022-09-21T02:30:13.626Z,99.90
2022-09-21T02:33:01.478Z,99.90
2022-09-21T02:35:31.449Z,99.90
2022-09-21T02:38:06.162Z,99.90
2022-09-21T02:40:49.214Z,99.90
2022-09-21T02:43:27.850Z,99.90
2022-09-21T02:46:04.398Z,99.90
2022-09-21T02:48:43.290Z,99.90
2022-09-21T02:51:14.211Z,99.90
2022-09-21T02:53:42.135Z,99.90
2022-09-21T02:56:11.602Z,99.90
2022-09-21T02:58:43.721Z,99.90
2022-09-21T03:01:12.659Z,99.90
2022-09-21T03:03:39.535Z,99.90
2022-09-21T03:06:06.731Z,99.90
2022-09-21T03:08:33.687Z,99.90
2022-09-21T03:11:01.046Z,99.90
2022-09-21T03:13:27.924Z,99.90
2022-09-21T03:16:04.451Z,99.90
2022-09-21T03:18:31.970Z,99.90
2022-09-21T03:20:59.290Z,99.90
2022-09-21T03:23:26.554Z,99.90
2022-09-21T03:25:54.719Z,99.90
2022-09-21T03:28:22.620Z,99.90
2022-09-21T03:30:51.528Z,99.90
2022-09-21T03:33:21.314Z,99.90
2022-09-21T03:35:48.961Z,99.90
2022-09-21T03:38:17.003Z,99.90
2022-09-21T03:40:48.360Z,99.90
2022-09-21T03:43:16.223Z,99.90
2022-09-21T03:45:43.524Z,99.90
2022-09-21T03:48:12.199Z,99.90
2022-09-21T03:50:39.650Z,99.90
2022-09-21T03:53:07.333Z,99.90
2022-09-21T03:55:34.871Z,99.90
2022-09-21T03:58:02.047Z,99.90
2022-09-21T04:00:29.600Z,99.90
2022-09-21T04:02:56.581Z,99.90
2022-09-21T04:05:23.572Z,99.90
2022-09-21T04:07:50.845Z,99.90
2022-09-21T04:10:21.424Z,99.90
2022-09-21T04:12:48.575Z,99.90
2022-09-21T04:15:19.732Z,99.90
2022-09-21T04:17:51.087Z,99.90
2022-09-21T04:20:18.084Z,99.90
2022-09-21T04:22:47.270Z,99.90
2022-09-21T04:25:15.770Z,99.90
2022-09-21T04:27:43.061Z,99.90
2022-09-21T04:30:15.877Z,99.90
2022-09-21T04:32:42.783Z,99.90
2022-09-21T04:35:10.573Z,99.90
2022-09-21T04:37:37.749Z,99.90
2022-09-21T04:40:05.803Z,99.90
2022-09-21T04:42:32.772Z,99.90
2022-09-21T04:45:00.966Z,99.90
2022-09-21T04:47:30.660Z,99.90
2022-09-21T04:49:57.872Z,99.90
2022-09-21T04:52:24.979Z,99.90
2022-09-21T04:54:52.107Z,99.90
2022-09-21T04:57:18.979Z,99.90
2022-09-21T04:59:45.905Z,99.90
2022-09-21T05:02:12.765Z,99.90
2022-09-21T05:04:39.647Z,99.90
2022-09-21T05:07:06.694Z,99.90
2022-09-21T05:09:51.975Z,99.90
2022-09-21T05:12:18.886Z,99.90
2022-09-21T05:14:45.777Z,99.90
2022-09-21T05:17:13.427Z,99.90
2022-09-21T05:19:41.169Z,99.90
2022-09-21T05:22:08.227Z,99.90
2022-09-21T05:24:35.289Z,99.90
2022-09-21T05:27:02.251Z,99.90
2022-09-21T05:29:29.484Z,99.90
2022-09-21T05:32:03.783Z,99.90
2022-09-21T05:34:39.611Z,99.90
2022-09-21T05:37:27.706Z,99.90
2022-09-21T05:39:54.848Z,99.90
2022-09-21T05:42:22.053Z,99.90
2022-09-21T05:44:50.732Z,99.90
2022-09-21T05:47:55.702Z,99.90
2022-09-21T05:50:34.910Z,99.90
2022-09-21T05:53:53.088Z,99.90
2022-09-21T05:56:23.247Z,99.90
2022-09-21T05:58:59.744Z,99.90
2022-09-21T06:02:00.299Z,99.90
2022-09-21T06:04:27.576Z,99.90
2022-09-21T06:06:54.591Z,99.90
2022-09-21T06:09:21.528Z,99.90
2022-09-21T06:11:49.689Z,99.90
2022-09-21T06:14:16.783Z,99.90
2022-09-21T06:16:43.774Z,99.90
2022-09-21T06:19:14.167Z,99.90
2022-09-21T06:21:41.064Z,99.90
2022-09-21T06:24:08.258Z,99.90
2022-09-21T06:26:35.200Z,99.90
2022-09-21T06:29:02.106Z,99.90
2022-09-21T06:31:29.096Z,99.90
2022-09-21T06:33:59.218Z,99.90
2022-09-21T06:36:26.331Z,99.90
2022-09-21T06:38:55.371Z,99.90
2022-09-21T06:41:22.338Z,99.90
2022-09-21T06:43:55.400Z,99.90
2022-09-21T06:46:22.394Z,99.90
2022-09-21T06:48:49.894Z,99.90
2022-09-21T06:51:16.860Z,99.90
2022-09-21T06:53:43.780Z,99.90
2022-09-21T06:56:14.057Z,99.90
2022-09-21T06:58:44.104Z,99.40
2022-09-21T07:01:14.270Z,97.80
2022-09-21T07:03:44.411Z,95.40
2022-09-21T07:06:14.130Z,94.30
2022-09-21T07:11:41.955Z,91.90
2022-09-21T07:14:10.948Z,90.20
2022-09-21T07:16:41.151Z,88.80
2022-09-21T07:19:11.965Z,87.30
2022-09-21T07:21:42.181Z,86.00
2022-09-21T07:24:12.532Z,84.10
2022-09-21T07:26:40.830Z,82.90
2022-09-21T07:29:10.881Z,81.60
2022-09-21T07:31:38.494Z,80.40
2022-09-21T07:34:07.500Z,79.70
2022-09-21T07:36:35.551Z,78.10
2022-09-21T07:39:05.054Z,78.00
2022-09-21T07:41:35.399Z,77.10
2022-09-21T07:44:04.052Z,75.90
2022-09-21T07:46:34.415Z,75.00
2022-09-21T07:49:06.176Z,73.40
2022-09-21T07:51:33.108Z,71.40
2022-09-21T07:54:03.135Z,70.70
2022-09-21T07:56:33.200Z,70.30
2022-09-21T07:59:08.178Z,69.90
2022-09-21T08:01:38.539Z,70.10
2022-09-21T08:04:07.846Z,70.10
2022-09-21T08:06:40.128Z,69.20
2022-09-21T08:09:13.448Z,68.70
2022-09-21T08:11:45.232Z,68.20
2022-09-21T08:14:25.202Z,68.40
2022-09-21T08:16:53.062Z,68.40
2022-09-21T08:19:25.903Z,68.60
2022-09-21T08:21:57.141Z,66.20
2022-09-21T08:24:27.040Z,64.40
2022-09-21T08:26:56.136Z,63.40
2022-09-21T08:29:25.494Z,63.70
2022-09-21T08:31:55.783Z,62.80
2022-09-21T08:34:29.984Z,62.20
2022-09-21T08:37:00.033Z,62.00
2022-09-21T08:39:30.135Z,60.50
2022-09-21T08:42:25.546Z,60.40
2022-09-21T08:45:00.403Z,58.90
2022-09-21T08:47:50.116Z,58.30
2022-09-21T08:50:28.759Z,57.20
2022-09-21T08:53:04.935Z,57.60
2022-09-21T08:55:32.031Z,57.70
2022-09-21T08:58:00.576Z,57.80
2022-09-21T09:00:38.176Z,57.40
2022-09-21T09:03:18.999Z,57.00
2022-09-21T09:06:07.917Z,56.50
2022-09-21T09:09:02.370Z,55.60
2022-09-21T09:11:45.064Z,55.40
2022-09-21T09:14:36.066Z,55.40
2022-09-21T09:17:22.068Z,54.90
2022-09-21T09:19:56.569Z,55.30
2022-09-21T09:22:30.587Z,55.90
2022-09-21T09:25:05.648Z,54.10
2022-09-21T09:27:40.495Z,53.80
2022-09-21T09:30:17.447Z,53.80
2022-09-21T09:32:56.347Z,54.00
2022-09-21T09:35:36.101Z,53.40
2022-09-21T09:38:27.984Z,52.80
2022-09-21T09:41:22.975Z,52.90
2022-09-21T09:44:28.185Z,53.00
2022-09-21T09:47:21.799Z,52.20
2022-09-21T09:50:13.416Z,51.70
2022-09-21T09:52:42.642Z,51.50
2022-09-21T09:55:20.314Z,51.20
2022-09-21T09:57:49.533Z,50.90
2022-09-21T10:00:21.751Z,50.90
2022-09-21T10:02:59.328Z,50.80
2022-09-21T10:05:33.076Z,51.20
2022-09-21T10:08:03.098Z,51.50
2022-09-21T10:10:40.754Z,51.50
2022-09-21T10:13:09.583Z,52.10
2022-09-21T10:15:45.395Z,51.70
2022-09-21T10:18:46.636Z,51.70
2022-09-21T10:21:33.308Z,50.80
2022-09-21T10:24:23.605Z,50.80
2022-09-21T10:26:54.823Z,50.00
2022-09-21T10:29:44.302Z,50.20
2022-09-21T10:32:26.527Z,50.10
2022-09-21T10:35:07.248Z,51.10
2022-09-21T10:37:40.399Z,51.00
2022-09-21T10:40:30.984Z,50.80
2022-09-21T10:43:00.763Z,51.10
2022-09-21T10:45:30.439Z,51.50
2022-09-21T10:48:06.335Z,52.10
2022-09-21T10:50:37.507Z,53.10
2022-09-21T10:53:10.570Z,52.90
2022-09-21T10:56:17.366Z,52.40
2022-09-21T10:59:19.106Z,51.90
2022-09-21T11:01:48.730Z,51.70
2022-09-21T11:04:45.975Z,51.50
2022-09-21T11:07:25.440Z,51.50
2022-09-21T11:10:08.601Z,51.00
2022-09-21T11:13:00.570Z,51.30
2022-09-21T11:16:00.784Z,53.80
2022-09-21T11:18:58.787Z,54.90
2022-09-21T11:21:40.864Z,55.90
2022-09-21T11:24:29.214Z,56.80
2022-09-21T11:27:16.739Z,57.90
2022-09-21T11:29:49.480Z,59.30
2022-09-21T11:32:37.462Z,61.30
2022-09-21T11:35:27.050Z,62.00
2022-09-21T11:38:10.056Z,62.20
2022-09-21T11:41:20.991Z,62.50
2022-09-21T11:44:19.271Z,60.90
2022-09-21T11:47:03.873Z,61.00
2022-09-21T11:50:07.880Z,61.10
2022-09-21T11:53:28.985Z,60.50
2022-09-21T11:56:04.775Z,61.50
2022-09-21T11:59:07.134Z,62.60
2022-09-21T12:01:56.942Z,63.70
2022-09-21T12:04:36.870Z,65.90
2022-09-21T12:07:27.350Z,66.40
2022-09-21T12:10:11.957Z,67.40
2022-09-21T12:13:13.316Z,68.40
2022-09-21T12:15:49.639Z,69.50
2022-09-21T12:18:33.680Z,69.20
2022-09-21T12:21:11.691Z,69.30
2022-09-21T12:23:59.674Z,69.60
2022-09-21T12:26:39.188Z,71.00
2022-09-21T12:29:38.170Z,71.00
2022-09-21T12:32:25.627Z,70.90
2022-09-21T12:34:57.558Z,69.90
2022-09-21T12:37:45.145Z,68.50
2022-09-21T12:40:38.571Z,68.50
2022-09-21T12:43:21.059Z,69.50
2022-09-21T12:46:18.367Z,70.70
2022-09-21T12:48:45.732Z,71.20
2022-09-21T12:51:33.619Z,71.30
2022-09-21T12:54:11.895Z,72.20
2022-09-21T12:56:50.020Z,73.10
2022-09-21T12:59:46.343Z,73.90
2022-09-21T13:02:40.508Z,74.50
2022-09-21T13:05:16.818Z,74.10
2022-09-21T13:08:07.896Z,73.40
2022-09-21T13:11:01.212Z,72.90
2022-09-21T13:13:38.747Z,72.10
2022-09-21T13:16:25.847Z,71.20
2022-09-21T13:19:02.148Z,70.90
2022-09-21T13:21:33.576Z,70.70
2022-09-21T13:24:04.384Z,70.60
2022-09-21T13:27:08.158Z,70.50
2022-09-21T13:29:41.842Z,70.40
2022-09-21T13:32:14.112Z,70.00
2022-09-21T13:34:44.487Z,70.00
2022-09-21T13:37:15.175Z,70.30
2022-09-21T13:39:58.076Z,70.10
2022-09-21T13:42:33.184Z,70.70
2022-09-21T13:45:12.771Z,69.80
2022-09-21T13:47:43.096Z,70.10
2022-09-21T13:50:38.753Z,70.20
2022-09-21T13:53:22.611Z,69.60
2022-09-21T13:56:00.069Z,70.30
2022-09-21T13:58:34.043Z,70.60
2022-09-21T14:01:45.041Z,71.00
2022-09-21T14:04:28.610Z,71.10
2022-09-21T14:06:57.992Z,71.50
2022-09-21T14:09:31.871Z,71.60
2022-09-21T14:12:06.553Z,71.60
2022-09-21T14:14:40.039Z,71.80
2022-09-21T14:17:35.334Z,71.50
2022-09-21T14:20:07.399Z,71.30
2022-09-21T14:22:39.187Z,71.40
2022-09-21T14:25:27.966Z,71.70
2022-09-21T14:28:02.768Z,71.60
2022-09-21T14:30:34.486Z,72.00
2022-09-21T14:33:10.603Z,72.30
2022-09-21T14:35:41.456Z,72.30
2022-09-21T14:38:31.641Z,71.90
2022-09-21T14:41:07.637Z,71.30
2022-09-21T14:43:39.866Z,71.50
2022-09-21T14:46:54.100Z,71.90
2022-09-21T14:49:39.690Z,71.90
2022-09-21T14:52:41.067Z,72.90
2022-09-21T14:55:46.284Z,73.20
2022-09-21T14:58:14.401Z,73.30
2022-09-21T15:00:48.848Z,73.30
2022-09-21T15:03:40.168Z,73.60
2022-09-21T15:06:39.838Z,73.50
2022-09-21T15:10:09.999Z,73.20
2022-09-21T15:12:47.689Z,72.90
2022-09-21T15:15:27.195Z,73.40
2022-09-21T15:18:02.669Z,73.50
2022-09-21T15:20:32.189Z,73.60
2022-09-21T15:23:00.530Z,73.70
2022-09-21T15:25:32.181Z,73.70
2022-09-21T15:28:00.487Z,73.60
2022-09-21T15:30:45.923Z,73.10
2022-09-21T15:33:14.164Z,73.10
2022-09-21T15:35:46.863Z,73.20
2022-09-21T15:38:36.726Z,73.30
2022-09-21T15:41:11.479Z,73.70
2022-09-21T15:43:40.839Z,73.50
2022-09-21T15:46:12.705Z,73.30
2022-09-21T15:48:47.229Z,73.30
2022-09-21T15:51:29.856Z,73.70
2022-09-21T15:54:23.924Z,74.30
2022-09-21T15:56:51.258Z,75.00
2022-09-21T15:59:21.155Z,75.50
2022-09-21T16:01:52.931Z,76.00
2022-09-21T16:04:25.211Z,76.10
2022-09-21T16:07:24.603Z,76.20
2022-09-21T16:09:55.124Z,76.20
2022-09-21T16:12:43.908Z,76.20
2022-09-21T16:15:13.846Z,76.80
2022-09-21T16:17:56.143Z,77.00
2022-09-21T16:20:36.926Z,77.30
2022-09-21T16:23:13.257Z,77.60
2022-09-21T16:25:40.902Z,77.80
2022-09-21T16:28:29.580Z,77.80
2022-09-21T16:30:59.045Z,77.80
2022-09-21T16:33:38.314Z,77.70
2022-09-21T16:36:27.563Z,77.90
2022-09-21T16:38:56.646Z,77.80
2022-09-21T16:41:35.227Z,78.00
2022-09-21T16:44:05.448Z,77.90
2022-09-21T16:46:36.270Z,78.00
2022-09-21T16:49:15.370Z,78.30
2022-09-21T16:51:47.218Z,78.60
2022-09-21T16:54:18.952Z,79.00
2022-09-21T16:56:46.562Z,79.20
2022-09-21T16:59:23.212Z,79.40
2022-09-21T17:01:57.797Z,79.60
2022-09-21T17:04:33.181Z,79.60
2022-09-21T17:07:00.890Z,79.90
2022-09-21T17:09:30.056Z,80.80
2022-09-21T17:12:01.427Z,80.10
2022-09-21T17:14:36.672Z,80.40
2022-09-21T17:17:36.167Z,80.60
2022-09-21T17:20:18.931Z,80.70
2022-09-21T17:22:49.166Z,80.60
2022-09-21T17:25:16.067Z,80.80
2022-09-21T17:27:45.206Z,81.00
2022-09-21T17:30:14.220Z,81.20
2022-09-21T17:32:42.710Z,81.30
2022-09-21T17:35:32.982Z,81.50
2022-09-21T17:38:00.658Z,81.60
2022-09-21T17:40:28.053Z,81.80
2022-09-21T17:43:06.496Z,82.70
2022-09-21T17:45:43.269Z,82.00
2022-09-21T17:48:19.786Z,82.20
2022-09-21T17:50:47.171Z,82.50
2022-09-21T17:53:32.775Z,82.80
2022-09-21T17:56:15.183Z,83.00
2022-09-21T17:58:57.120Z,83.10
2022-09-21T18:01:29.890Z,83.40
2022-09-21T18:03:57.665Z,83.50
2022-09-21T18:06:26.076Z,83.70
2022-09-21T18:08:54.175Z,83.80
2022-09-21T18:11:37.215Z,83.80
2022-09-21T18:14:34.972Z,83.90
2022-09-21T18:17:25.248Z,84.10
2022-09-21T18:20:10.931Z,84.20
2022-09-21T18:22:58.802Z,84.40
2022-09-21T18:25:35.665Z,84.50
2022-09-21T18:28:31.780Z,84.60
2022-09-21T18:31:36.656Z,84.80
2022-09-21T18:34:14.074Z,84.90
2022-09-21T18:37:04.160Z,85.10
2022-09-21T18:40:03.354Z,85.30
2022-09-21T18:42:57.798Z,85.70
2022-09-21T18:45:33.033Z,85.90
2022-09-21T18:48:17.448Z,86.20
2022-09-21T18:51:05.072Z,86.30
2022-09-21T18:53:58.508Z,86.40
2022-09-21T18:56:35.664Z,87.00
2022-09-21T18:59:03.462Z,87.30
2022-09-21T19:01:33.790Z,87.20
2022-09-21T19:04:01.546Z,87.40
2022-09-21T19:06:54.961Z,87.90
2022-09-21T19:09:52.183Z,88.20
2022-09-21T19:12:55.194Z,88.50
2022-09-21T19:15:58.577Z,88.90
2022-09-21T19:18:36.258Z,89.10
2022-09-21T19:21:26.792Z,89.30
2022-09-21T19:24:14.810Z,89.80
2022-09-21T19:27:02.524Z,90.00
2022-09-21T19:29:45.029Z,90.10
2022-09-21T19:32:36.471Z,90.40
2022-09-21T19:35:17.464Z,90.40
2022-09-21T19:37:44.817Z,90.60
2022-09-21T19:40:12.045Z,90.70
2022-09-21T19:43:34.188Z,90.70
2022-09-21T19:46:20.545Z,90.80
2022-09-21T19:48:50.950Z,90.80
2022-09-21T19:51:24.238Z,90.90
2022-09-21T19:54:15.261Z,90.90
2022-09-21T19:57:09.170Z,91.00
2022-09-21T19:59:45.490Z,91.10
2022-09-21T20:02:12.372Z,91.10
2022-09-21T20:04:42.662Z,91.50
2022-09-21T20:07:51.698Z,91.30
2022-09-21T20:10:30.960Z,91.50
2022-09-21T20:13:20.963Z,91.50
2022-09-21T20:16:08.792Z,91.60
2022-09-21T20:18:38.911Z,91.60
2022-09-21T20:21:13.537Z,91.70
2022-09-21T20:23:41.093Z,91.70
2022-09-21T20:26:23.958Z,91.80
2022-09-21T20:28:55.014Z,91.80
2022-09-21T20:31:24.340Z,91.80
2022-09-21T20:33:51.311Z,91.90
2022-09-21T20:36:18.350Z,92.00
2022-09-21T20:38:45.308Z,92.00
2022-09-21T20:41:13.454Z,92.20
2022-09-21T20:43:40.602Z,92.30
2022-09-21T20:46:09.712Z,92.40
2022-09-21T20:48:38.471Z,92.40
2022-09-21T20:51:06.329Z,92.50
2022-09-21T20:53:36.246Z,92.70
2022-09-21T20:56:03.773Z,92.70
2022-09-21T20:58:31.201Z,92.80
2022-09-21T21:01:08.832Z,92.80
2022-09-21T21:03:35.886Z,92.80
2022-09-21T21:06:18.843Z,92.80
2022-09-21T21:08:46.319Z,92.80
2022-09-21T21:11:14.483Z,92.70
2022-09-21T21:13:41.644Z,92.70
2022-09-21T21:16:12.048Z,92.80
2022-09-21T21:18:42.820Z,92.80
2022-09-21T21:21:09.841Z,92.90
2022-09-21T21:23:55.130Z,92.90
2022-09-21T21:26:29.483Z,93.00
2022-09-21T21:29:09.103Z,93.00
2022-09-21T21:31:36.186Z,93.00
2022-09-21T21:34:03.170Z,93.10
2022-09-21T21:36:30.056Z,93.10
2022-09-21T21:38:56.983Z,93.10
2022-09-21T21:41:23.846Z,93.10
2022-09-21T21:43:51.766Z,93.20
2022-09-21T21:46:18.731Z,93.20
2022-09-21T21:48:47.050Z,93.20
2022-09-21T21:51:13.894Z,93.30
2022-09-21T21:53:40.962Z,93.30
2022-09-21T21:56:16.350Z,93.30
2022-09-21T21:58:43.920Z,93.50
2022-09-21T22:01:15.015Z,93.50
2022-09-21T22:03:42.283Z,93.70
2022-09-21T22:06:10.572Z,93.80
2022-09-21T22:08:38.987Z,93.90
2022-09-21T22:11:07.875Z,94.00
2022-09-21T22:13:36.991Z,94.10
2022-09-21T22:16:24.280Z,94.30
2022-09-21T22:18:52.358Z,94.30
2022-09-21T22:21:26.268Z,94.50
2022-09-21T22:24:01.256Z,94.50
2022-09-21T22:26:29.903Z,94.60
2022-09-21T22:28:59.309Z,94.70
2022-09-21T22:31:29.198Z,94.90
2022-09-21T22:33:58.602Z,95.00
2022-09-21T22:36:28.156Z,95.10
2022-09-21T22:38:55.661Z,95.10
2022-09-21T22:41:28.971Z,95.30
2022-09-21T22:43:57.641Z,95.40
2022-09-21T22:46:27.209Z,95.50
2022-09-21T22:48:54.166Z,95.70
2022-09-21T22:51:22.219Z,95.80
2022-09-21T22:53:50.750Z,95.80
2022-09-21T22:56:20.099Z,95.90
2022-09-21T22:58:49.754Z,96.00
2022-09-21T23:01:29.011Z,96.00
2022-09-21T23:03:58.775Z,96.00
2022-09-21T23:06:32.918Z,96.10
2022-09-21T23:09:02.214Z,96.10
2022-09-21T23:11:39.167Z,96.20
2022-09-21T23:14:06.379Z,96.20
2022-09-21T23:16:33.940Z,96.30
2022-09-21T23:19:01.026Z,96.40
2022-09-21T23:21:29.640Z,96.50
2022-09-21T23:23:59.929Z,96.60
2022-09-21T23:26:28.651Z,96.80
2022-09-21T23:29:00.709Z,96.80
2022-09-21T23:31:29.182Z,96.90
2022-09-21T23:34:04.137Z,97.00
2022-09-21T23:36:32.086Z,97.10
2022-09-21T23:38:59.020Z,97.20
2022-09-21T23:41:32.652Z,97.30
2022-09-21T23:43:59.769Z,97.50
2022-09-21T23:46:29.861Z,97.60
2022-09-21T23:49:00.754Z,97.80
2022-09-21T23:51:29.977Z,98.00
2022-09-21T23:53:58.059Z,98.10
2022-09-21T23:56:25.802Z,98.20
2022-09-21T23:58:53.265Z,98.20
